Time;durP1;ratioP1;P1;durP2;ratioP2;P2;SDS_P1;SDS_P2;PMS_P1;PMS_P2;Temp;Humidity;BMP_temperature;BMP_pressure;BME280_temperature;BME280_humidity;BME280_pressure;Samples;Min_cycle;Max_cycle;Signal;HPM_P1;HPM_P2
2022/04/20 00:01:58;;;;;;;4.65;2.83;;;7.40;99.90;;;;;;5124529;27;20075;-71
2022/04/20 00:04:24;;;;;;;4.50;3.00;;;7.40;99.90;;;;;;5110641;27;20213;-71
2022/04/20 00:06:49;;;;;;;3.63;2.78;;;7.40;99.90;;;;;;5134613;27;20034;-71
2022/04/20 00:09:15;;;;;;;3.97;2.97;;;7.30;99.90;;;;;;5147451;27;20031;-72
2022/04/20 00:11:41;;;;;;;4.55;3.28;;;7.30;99.90;;;;;;5147358;27;20325;-72
2022/04/20 00:14:06;;;;;;;6.03;3.42;;;7.30;99.90;;;;;;5130416;27;20031;-71
2022/04/20 00:16:32;;;;;;;6.13;3.70;;;7.30;99.90;;;;;;5129585;27;20053;-71
2022/04/20 00:18:58;;;;;;;5.40;3.50;;;7.30;99.90;;;;;;5147077;27;20102;-72
2022/04/20 00:21:23;;;;;;;4.40;3.38;;;7.20;99.90;;;;;;5113129;27;20039;-71
2022/04/20 00:23:49;;;;;;;5.03;3.20;;;7.20;99.90;;;;;;5130015;27;20034;-70
2022/04/20 00:26:15;;;;;;;4.32;3.33;;;7.20;99.90;;;;;;5131321;27;20034;-71
2022/04/20 00:28:41;;;;;;;6.80;3.35;;;7.20;99.90;;;;;;5126897;27;20114;-71
2022/04/20 00:31:06;;;;;;;5.80;3.60;;;7.20;99.90;;;;;;5141371;27;20314;-71
2022/04/20 00:33:32;;;;;;;4.68;3.30;;;7.20;99.90;;;;;;5130360;27;20025;-71
2022/04/20 00:35:58;;;;;;;6.80;3.58;;;7.20;99.90;;;;;;5120120;27;20084;-71
2022/04/20 00:38:26;;;;;;;6.93;3.38;;;7.10;99.90;;;;;;5109637;27;20031;-71
2022/04/20 00:40:55;;;;;;;4.97;3.47;;;7.20;99.90;;;;;;5099169;27;20019;-71
2022/04/20 00:43:21;;;;;;;4.70;3.25;;;7.20;99.90;;;;;;5126092;27;20075;-72
2022/04/20 00:45:49;;;;;;;4.20;3.30;;;7.10;99.90;;;;;;5126211;27;20027;-73
2022/04/20 00:48:16;;;;;;;5.07;3.45;;;7.10;99.90;;;;;;5125618;27;20023;-72
2022/04/20 00:50:47;;;;;;;5.30;3.38;;;7.10;99.90;;;;;;5131985;27;20038;-72
2022/04/20 00:53:13;;;;;;;7.53;3.50;;;7.10;99.90;;;;;;5146833;27;20041;-72
2022/04/20 00:55:38;;;;;;;5.55;3.40;;;7.10;99.90;;;;;;5129314;27;20039;-72
2022/04/20 00:58:04;;;;;;;5.18;3.30;;;7.10;99.90;;;;;;5109628;27;20144;-73
2022/04/20 01:00:31;;;;;;;6.13;3.70;;;7.10;99.90;;;;;;5109566;27;20358;-72
2022/04/20 01:02:57;;;;;;;4.72;3.83;;;7.00;99.90;;;;;;5112251;27;20042;-72
2022/04/20 01:05:23;;;;;;;4.47;3.45;;;6.90;99.90;;;;;;5129273;27;20228;-71
2022/04/20 01:07:49;;;;;;;3.90;3.10;;;6.90;99.90;;;;;;5131025;27;20035;-71
2022/04/20 01:10:15;;;;;;;6.15;3.35;;;6.80;99.90;;;;;;5127526;27;20041;-71
2022/04/20 01:12:45;;;;;;;4.65;3.38;;;6.80;99.90;;;;;;5128454;27;20062;-72
2022/04/20 01:15:12;;;;;;;3.83;3.13;;;6.80;99.90;;;;;;5129070;27;20038;-71
2022/04/20 01:17:38;;;;;;;6.40;3.60;;;6.80;99.90;;;;;;5135811;27;20031;-72
2022/04/20 01:20:12;;;;;;;5.43;3.38;;;6.80;99.90;;;;;;5125062;27;20047;-73
2022/04/20 01:22:38;;;;;;;4.57;3.88;;;6.80;99.90;;;;;;5120849;27;20023;-72
2022/04/20 01:25:04;;;;;;;4.90;3.25;;;6.80;99.90;;;;;;5146429;27;20040;-72
2022/04/20 01:27:30;;;;;;;4.68;3.28;;;6.80;99.90;;;;;;5128528;27;20042;-72
2022/04/20 01:29:55;;;;;;;4.30;2.95;;;6.70;99.90;;;;;;5110702;27;20217;-72
2022/04/20 01:32:21;;;;;;;4.15;3.20;;;6.70;99.90;;;;;;5145770;27;20030;-72
2022/04/20 01:34:47;;;;;;;4.35;3.20;;;6.70;99.90;;;;;;5129328;27;20070;-72
2022/04/20 01:37:13;;;;;;;6.13;3.67;;;6.70;99.90;;;;;;5127497;27;20022;-72
2022/04/20 01:39:41;;;;;;;4.43;3.50;;;6.80;99.90;;;;;;5125124;27;20135;-72
2022/04/20 01:42:10;;;;;;;5.18;3.60;;;6.70;99.90;;;;;;5136125;27;20422;-72
2022/04/20 01:44:37;;;;;;;5.00;3.80;;;6.70;99.90;;;;;;5146184;27;20039;-72
2022/04/20 01:47:03;;;;;;;4.97;3.38;;;6.70;99.90;;;;;;5125341;27;20274;-72
2022/04/20 01:49:28;;;;;;;4.53;3.78;;;6.60;99.90;;;;;;5128856;27;20030;-72
2022/04/20 01:51:54;;;;;;;4.38;3.30;;;6.60;99.90;;;;;;5111539;27;20031;-73
2022/04/20 01:54:20;;;;;;;5.22;3.28;;;6.70;99.90;;;;;;5145333;27;20213;-73
2022/04/20 01:56:48;;;;;;;5.35;3.78;;;6.60;99.90;;;;;;5144265;27;20027;-73
2022/04/20 01:59:51;;;;;;;4.00;3.08;;;6.60;99.90;;;;;;5124443;27;20043;-73
2022/04/20 02:02:35;;;;;;;6.85;3.65;;;6.60;99.90;;;;;;5083586;28;20066;-73
2022/04/20 02:05:03;;;;;;;5.40;3.83;;;6.50;99.90;;;;;;5092658;28;20035;-73
2022/04/20 02:07:31;;;;;;;5.20;3.80;;;6.60;99.90;;;;;;5118240;28;20020;-72
2022/04/20 02:09:57;;;;;;;4.88;3.47;;;6.80;99.90;;;;;;5101444;28;20269;-71
2022/04/20 02:12:22;;;;;;;7.03;3.33;;;6.50;99.90;;;;;;5117366;28;20036;-71
2022/04/20 02:14:48;;;;;;;5.28;3.35;;;6.50;99.90;;;;;;5116694;28;20032;-72
2022/04/20 02:17:17;;;;;;;5.00;3.50;;;6.50;99.90;;;;;;5120926;28;20039;-72
2022/04/20 02:19:42;;;;;;;4.70;3.47;;;6.50;99.90;;;;;;5083261;28;20108;-72
2022/04/20 02:22:16;;;;;;;5.60;3.90;;;6.50;99.90;;;;;;5100550;28;20036;-72
2022/04/20 02:24:42;;;;;;;5.07;3.13;;;6.50;99.90;;;;;;5093817;28;20060;-72
2022/04/20 02:27:13;;;;;;;5.40;3.60;;;6.50;99.90;;;;;;5086973;28;20030;-71
2022/04/20 02:29:39;;;;;;;4.13;3.60;;;6.50;99.90;;;;;;5099063;28;20039;-72
2022/04/20 02:32:06;;;;;;;5.10;3.60;;;6.40;99.90;;;;;;5120809;28;20047;-72
2022/04/20 02:34:32;;;;;;;4.88;3.70;;;6.50;99.90;;;;;;5103869;28;20059;-72
2022/04/20 02:36:59;;;;;;;6.32;3.47;;;6.40;99.90;;;;;;5087225;28;20222;-72
2022/04/20 02:39:25;;;;;;;6.40;3.80;;;6.40;99.90;;;;;;5103028;28;20031;-72
2022/04/20 02:41:56;;;;;;;5.57;3.75;;;6.40;99.90;;;;;;5103959;28;20285;-72
2022/04/20 02:44:22;;;;;;;5.15;3.60;;;6.30;99.90;;;;;;5104311;28;20066;-72
2022/04/20 02:46:47;;;;;;;7.25;3.60;;;6.30;99.90;;;;;;5104094;28;20036;-72
2022/04/20 02:49:13;;;;;;;4.80;3.60;;;6.30;99.90;;;;;;5119369;28;20066;-72
2022/04/20 02:51:41;;;;;;;4.97;3.92;;;6.30;99.90;;;;;;5087043;28;20031;-72
2022/04/20 02:54:09;;;;;;;6.03;3.75;;;6.30;99.90;;;;;;5120719;28;20393;-72
2022/04/20 02:56:34;;;;;;;5.25;3.78;;;6.20;99.90;;;;;;5100266;28;20028;-72
2022/04/20 02:59:00;;;;;;;4.97;3.80;;;6.20;99.90;;;;;;5085066;28;20028;-72
2022/04/20 03:01:28;;;;;;;5.78;3.67;;;6.20;99.90;;;;;;5119589;28;20051;-72
2022/04/20 03:03:53;;;;;;;8.60;4.07;;;6.10;99.90;;;;;;5086994;28;20055;-71
2022/04/20 03:06:19;;;;;;;4.47;3.42;;;6.20;99.90;;;;;;5134107;28;20031;-71
2022/04/20 03:08:46;;;;;;;5.63;3.53;;;6.20;99.90;;;;;;5141328;28;20034;-72
2022/04/20 03:11:11;;;;;;;4.50;3.67;;;6.10;99.90;;;;;;5123077;28;20038;-72
2022/04/20 03:13:37;;;;;;;4.05;3.28;;;6.10;99.90;;;;;;5103279;28;20249;-72
2022/04/20 03:16:03;;;;;;;5.72;3.67;;;6.10;99.90;;;;;;5128971;28;20063;-71
2022/04/20 03:18:32;;;;;;;5.22;3.90;;;6.20;99.90;;;;;;5140663;28;20046;-71
2022/04/20 03:21:00;;;;;;;4.75;3.63;;;6.20;99.90;;;;;;5102836;28;20222;-70
2022/04/20 03:23:25;;;;;;;4.72;3.55;;;6.20;99.90;;;;;;5103152;28;20034;-70
2022/04/20 03:25:51;;;;;;;5.95;3.65;;;6.20;99.90;;;;;;5123706;28;20210;-71
2022/04/20 03:28:17;;;;;;;6.60;3.65;;;6.20;99.90;;;;;;5140711;28;20019;-70
2022/04/20 03:30:43;;;;;;;5.47;3.78;;;6.10;99.90;;;;;;5123220;28;20035;-70
2022/04/20 03:33:10;;;;;;;6.93;4.47;;;6.10;99.90;;;;;;5123586;28;20210;-71
2022/04/20 03:35:40;;;;;;;5.65;3.33;;;6.10;99.90;;;;;;5141300;27;20031;-71
2022/04/20 03:38:07;;;;;;;7.82;3.80;;;6.10;99.90;;;;;;5143364;27;20019;-71
2022/04/20 03:40:33;;;;;;;5.20;3.95;;;6.00;99.90;;;;;;5123625;27;20023;-71
2022/04/20 03:42:58;;;;;;;5.50;4.00;;;6.10;99.90;;;;;;5107125;28;20230;-70
2022/04/20 03:45:24;;;;;;;4.28;3.70;;;6.00;99.90;;;;;;5107209;28;20313;-71
2022/04/20 03:47:50;;;;;;;6.25;3.42;;;6.50;99.90;;;;;;5124293;28;20093;-70
2022/04/20 03:50:16;;;;;;;6.03;3.55;;;5.90;99.90;;;;;;5106384;28;20056;-71
2022/04/20 03:52:42;;;;;;;4.95;3.70;;;5.90;99.90;;;;;;5107537;28;20039;-71
2022/04/20 03:55:08;;;;;;;5.55;3.90;;;5.90;99.90;;;;;;5107142;28;20165;-71
2022/04/20 03:57:33;;;;;;;4.65;3.72;;;5.90;99.90;;;;;;5132823;27;20173;-69
2022/04/20 03:59:59;;;;;;;5.38;3.88;;;5.90;99.90;;;;;;5113202;27;20087;-70
2022/04/20 04:02:28;;;;;;;5.00;4.18;;;5.90;99.90;;;;;;5117147;27;20066;-70
2022/04/20 04:04:55;;;;;;;5.90;4.13;;;5.90;99.90;;;;;;5110271;27;20039;-70
2022/04/20 04:07:20;;;;;;;6.30;3.85;;;5.90;99.90;;;;;;5131109;27;20042;-70
2022/04/20 04:09:46;;;;;;;4.57;3.60;;;6.00;99.90;;;;;;5130494;27;20045;-70
2022/04/20 04:12:11;;;;;;;5.85;3.90;;;6.00;99.90;;;;;;5128824;27;20035;-71
2022/04/20 04:14:41;;;;;;;5.22;3.70;;;6.00;99.90;;;;;;5135234;27;20140;-72
2022/04/20 04:17:07;;;;;;;6.38;3.75;;;6.10;99.90;;;;;;5127088;27;20031;-71
2022/04/20 04:19:35;;;;;;;4.75;3.67;;;6.10;99.90;;;;;;5126142;27;20070;-71
2022/04/20 04:22:05;;;;;;;4.38;3.50;;;6.00;99.90;;;;;;5126817;27;20094;-71
2022/04/20 04:24:37;;;;;;;5.13;3.72;;;6.00;99.90;;;;;;5109271;27;20257;-71
2022/04/20 04:27:08;;;;;;;6.13;3.65;;;5.80;99.90;;;;;;5126199;27;20046;-70
2022/04/20 04:29:34;;;;;;;6.20;3.80;;;5.50;99.90;;;;;;5143136;27;20109;-71
2022/04/20 04:32:01;;;;;;;4.80;3.88;;;5.20;99.90;;;;;;5111801;27;20033;-71
2022/04/20 04:34:27;;;;;;;4.15;3.42;;;4.90;99.90;;;;;;5125454;27;20325;-71
2022/04/20 04:36:54;;;;;;;6.35;3.78;;;4.70;99.90;;;;;;5109322;27;20027;-71
2022/04/20 04:39:23;;;;;;;5.55;4.05;;;5.40;99.90;;;;;;5137551;27;20091;-71
2022/04/20 04:41:52;;;;;;;5.63;4.50;;;4.60;99.90;;;;;;5147256;27;20209;-71
2022/04/20 04:44:19;;;;;;;6.07;4.10;;;4.60;99.90;;;;;;5143495;27;20209;-71
2022/04/20 04:49:30;;;;;;;5.82;3.92;;;4.90;99.90;;;;;;5136123;27;20095;-72
2022/04/20 04:51:57;;;;;;;5.28;4.53;;;5.00;99.90;;;;;;5112185;27;20038;-72
2022/04/20 04:54:23;;;;;;;5.30;4.15;;;5.00;99.90;;;;;;5126362;27;20066;-71
2022/04/20 04:56:49;;;;;;;4.53;3.72;;;5.10;99.90;;;;;;5146627;27;20038;-71
2022/04/20 04:59:14;;;;;;;6.65;4.68;;;5.20;99.90;;;;;;5112438;27;20022;-71
2022/04/20 05:01:40;;;;;;;8.40;4.68;;;5.30;99.90;;;;;;5145640;27;20057;-71
2022/04/20 05:04:06;;;;;;;6.75;4.13;;;5.80;99.90;;;;;;5124421;27;20059;-71
2022/04/20 05:06:32;;;;;;;4.80;4.30;;;5.20;99.90;;;;;;5091492;27;20241;-71
2022/04/20 05:08:58;;;;;;;7.68;4.47;;;5.20;99.90;;;;;;5123004;27;20038;-71
2022/04/20 05:11:23;;;;;;;5.93;4.40;;;5.30;99.90;;;;;;5129113;27;20035;-71
2022/04/20 05:13:57;;;;;;;8.70;4.03;;;5.20;99.90;;;;;;5142554;27;20144;-71
2022/04/20 05:16:23;;;;;;;5.35;4.05;;;5.30;99.90;;;;;;5091033;27;20039;-71
2022/04/20 05:18:49;;;;;;;5.50;4.40;;;5.40;99.90;;;;;;5125629;27;20027;-70
2022/04/20 05:21:14;;;;;;;10.13;4.72;;;5.40;99.90;;;;;;5107667;27;20041;-70
2022/04/20 05:23:40;;;;;;;4.90;4.40;;;5.50;99.90;;;;;;5128597;27;20079;-70
2022/04/20 05:26:06;;;;;;;6.45;4.63;;;5.60;99.90;;;;;;5127881;27;20105;-71
2022/04/20 05:28:31;;;;;;;5.95;4.32;;;5.70;99.90;;;;;;5094301;27;20034;-70
2022/04/20 05:30:57;;;;;;;6.38;4.85;;;5.80;99.90;;;;;;5125228;27;20106;-70
2022/04/20 05:33:22;;;;;;;6.82;4.82;;;5.90;99.90;;;;;;5102801;27;20038;-71
2022/04/20 05:35:48;;;;;;;7.65;5.00;;;6.00;99.90;;;;;;5114708;27;20042;-71
2022/04/20 05:43:42;;;;;;;5.97;4.68;;;6.50;99.90;;;;;;5145488;27;20042;-70
2022/04/20 05:46:09;;;;;;;5.72;4.32;;;6.60;99.90;;;;;;5124344;27;20075;-71
2022/04/20 05:48:38;;;;;;;8.65;4.35;;;6.70;99.90;;;;;;5125117;27;20034;-71
2022/04/20 05:51:04;;;;;;;8.07;4.15;;;7.70;99.90;;;;;;5114253;27;20023;-71
2022/04/20 05:53:30;;;;;;;6.53;4.07;;;6.80;99.90;;;;;;5145056;27;20085;-71
2022/04/20 05:55:55;;;;;;;5.65;4.32;;;7.00;99.90;;;;;;5123329;27;20106;-71
2022/04/20 05:58:21;;;;;;;6.22;4.57;;;7.10;99.90;;;;;;5124515;27;20043;-71
2022/04/20 06:00:47;;;;;;;7.13;4.43;;;7.70;99.90;;;;;;5107496;27;20098;-71
2022/04/20 06:03:13;;;;;;;5.68;4.20;;;7.30;99.90;;;;;;5127813;27;20101;-71
2022/04/20 06:05:38;;;;;;;5.07;4.07;;;7.40;99.90;;;;;;5141985;27;20038;-71
2022/04/20 06:08:04;;;;;;;5.45;4.03;;;7.60;99.90;;;;;;5107585;27;20035;-70
2022/04/20 06:10:32;;;;;;;6.57;4.38;;;7.70;99.90;;;;;;5141434;27;20102;-71
2022/04/20 06:13:01;;;;;;;5.03;3.75;;;7.70;99.90;;;;;;5110888;27;20023;-71
2022/04/20 06:15:26;;;;;;;6.68;4.40;;;7.80;99.90;;;;;;5144081;27;20034;-70
2022/04/20 06:17:52;;;;;;;5.55;4.20;;;7.80;99.90;;;;;;5110451;27;20034;-71
2022/04/20 06:20:18;;;;;;;5.13;4.03;;;8.30;99.90;;;;;;5118837;27;20027;-70
2022/04/20 06:22:44;;;;;;;5.70;4.50;;;7.90;99.90;;;;;;5151053;27;20079;-71
2022/04/20 06:25:10;;;;;;;5.43;4.18;;;8.10;99.90;;;;;;5154520;27;20221;-73
2022/04/20 06:27:36;;;;;;;5.40;4.50;;;8.10;99.90;;;;;;5154245;27;20022;-73
2022/04/20 06:30:03;;;;;;;8.07;4.20;;;8.20;99.90;;;;;;5158906;27;20071;-72
2022/04/20 06:32:29;;;;;;;7.32;4.50;;;8.20;99.90;;;;;;5121364;27;20075;-73
2022/04/20 06:34:55;;;;;;;6.20;4.10;;;8.40;99.90;;;;;;5100353;27;20051;-71
2022/04/20 06:37:23;;;;;;;6.68;4.38;;;8.60;99.90;;;;;;5116160;27;20317;-71
2022/04/20 06:39:49;;;;;;;8.10;4.13;;;8.70;99.90;;;;;;5127931;27;20030;-72
2022/04/20 06:42:15;;;;;;;4.82;3.95;;;8.80;99.90;;;;;;5117962;27;20068;-71
2022/04/20 06:44:41;;;;;;;8.40;4.03;;;8.90;99.90;;;;;;5108690;27;20035;-72
2022/04/20 06:47:07;;;;;;;5.93;4.25;;;8.90;99.90;;;;;;5125664;27;20031;-72
2022/04/20 06:49:33;;;;;;;5.22;3.90;;;8.90;99.90;;;;;;5125114;27;20050;-70
2022/04/20 07:00:16;;;;;;;6.07;3.78;;;9.50;99.90;;;;;;5126405;27;20058;-71
2022/04/20 07:02:42;;;;;;;4.70;3.80;;;9.70;99.90;;;;;;5103694;27;20047;-71
2022/04/20 07:05:09;;;;;;;5.38;3.90;;;9.90;99.90;;;;;;5139280;28;20039;-72
2022/04/20 07:07:35;;;;;;;4.25;2.67;;;10.00;99.90;;;;;;5126620;27;20113;-71
2022/04/20 07:10:07;;;;;;;4.95;3.10;;;9.90;99.90;;;;;;5125976;27;20039;-71
2022/04/20 07:12:33;;;;;;;5.72;3.10;;;10.00;99.90;;;;;;5122180;27;20031;-72
2022/04/20 07:14:58;;;;;;;4.47;3.45;;;10.10;99.90;;;;;;5149415;27;20035;-73
2022/04/20 07:17:24;;;;;;;4.75;3.40;;;10.10;99.90;;;;;;5106461;27;20080;-72
2022/04/20 07:19:50;;;;;;;4.00;2.92;;;10.20;99.90;;;;;;5130706;27;20193;-72
2022/04/20 07:22:15;;;;;;;4.40;3.60;;;10.10;99.90;;;;;;5117396;27;20105;-73
2022/04/20 07:24:41;;;;;;;4.80;3.45;;;10.20;99.90;;;;;;5130233;27;20401;-73
2022/04/20 07:27:07;;;;;;;4.65;3.25;;;10.30;99.90;;;;;;5110071;27;20087;-73
2022/04/20 07:29:32;;;;;;;6.25;3.13;;;10.40;99.90;;;;;;5127942;27;20069;-71
2022/04/20 07:31:58;;;;;;;3.67;2.80;;;10.60;99.90;;;;;;5124631;27;20068;-71
2022/04/20 07:34:23;;;;;;;4.38;3.20;;;10.70;99.90;;;;;;5135151;27;20034;-71
2022/04/20 07:36:49;;;;;;;2.92;2.42;;;10.80;99.90;;;;;;5142374;27;20041;-71
2022/04/20 07:39:15;;;;;;;4.82;3.40;;;10.60;99.90;;;;;;5134473;27;20209;-71
2022/04/20 07:41:42;;;;;;;4.95;2.85;;;10.80;99.90;;;;;;5139601;27;20031;-71
2022/04/20 07:44:08;;;;;;;4.00;2.78;;;10.70;99.90;;;;;;5128253;27;20034;-71
2022/04/20 07:46:34;;;;;;;4.18;3.38;;;10.70;99.90;;;;;;5130878;27;20037;-72
2022/04/20 07:50:18;;;;;;;3.60;2.63;;;10.90;99.90;;;;;;5112953;27;20271;-71
2022/04/20 07:51:46;;;;;;;3.00;2.50;;;11.10;99.90;;;;;;5140245;27;20039;-72
2022/04/20 07:54:14;;;;;;;2.97;2.67;;;11.10;99.90;;;;;;5127061;27;20115;-71
2022/04/20 07:56:39;;;;;;;3.30;2.53;;;11.20;99.90;;;;;;5109818;27;20202;-70
2022/04/20 07:59:07;;;;;;;3.45;2.60;;;11.20;99.90;;;;;;5124837;27;20034;-72
2022/04/20 08:01:33;;;;;;;3.35;2.70;;;11.30;99.90;;;;;;5108304;27;20341;-70
2022/04/20 08:03:59;;;;;;;5.40;2.80;;;11.40;99.90;;;;;;5107441;28;20043;-70
2022/04/20 08:06:24;;;;;;;3.67;2.50;;;11.60;99.90;;;;;;5109394;27;20198;-69
2022/04/20 08:08:50;;;;;;;2.90;2.58;;;11.60;99.90;;;;;;5108876;27;20106;-70
2022/04/20 08:11:24;;;;;;;3.08;2.50;;;11.60;99.90;;;;;;5129320;27;20031;-71
2022/04/20 08:16:34;;;;;;;2.60;1.77;;;12.00;99.90;;;;;;5123290;27;20031;-71
2022/04/20 08:19:03;;;;;;;4.43;2.35;;;11.90;99.90;;;;;;5106933;28;20030;-70
2022/04/20 08:21:29;;;;;;;3.03;2.13;;;12.20;99.90;;;;;;5122369;27;20058;-70
2022/04/20 08:23:56;;;;;;;2.38;1.90;;;12.10;99.90;;;;;;5123928;27;20035;-70
2022/04/20 08:26:22;;;;;;;3.08;2.65;;;12.30;99.90;;;;;;5107658;28;20030;-70
2022/04/20 08:28:48;;;;;;;2.00;1.63;;;12.40;99.90;;;;;;5089683;28;20209;-70
2022/04/20 08:31:15;;;;;;;2.83;2.00;;;12.30;99.90;;;;;;5094742;27;20035;-69
2022/04/20 08:33:41;;;;;;;3.03;1.95;;;12.30;99.90;;;;;;5124725;27;20036;-69
2022/04/20 08:36:07;;;;;;;2.67;2.17;;;12.30;99.60;;;;;;5119168;28;20083;-71
2022/04/20 08:38:33;;;;;;;3.40;2.10;;;12.50;99.90;;;;;;5126823;27;20147;-70
2022/04/20 08:41:00;;;;;;;3.72;1.98;;;12.50;99.90;;;;;;5123901;28;20038;-70
2022/04/20 08:43:28;;;;;;;3.05;1.77;;;12.50;99.90;;;;;;5123332;28;20035;-70
2022/04/20 08:45:55;;;;;;;4.72;2.00;;;12.60;99.20;;;;;;5112527;27;20029;-69
2022/04/20 08:48:20;;;;;;;2.35;1.85;;;12.70;94.20;;;;;;5108550;28;20291;-69
2022/04/20 08:50:46;;;;;;;2.28;2.08;;;12.70;92.60;;;;;;5110028;27;20105;-70
2022/04/20 08:53:13;;;;;;;2.83;2.55;;;12.70;94.40;;;;;;5105502;27;20027;-69
2022/04/20 08:55:40;;;;;;;2.85;2.03;;;12.80;96.70;;;;;;5131404;27;20047;-69
2022/04/20 08:58:05;;;;;;;3.17;2.08;;;12.80;94.00;;;;;;5107856;28;20023;-70
2022/04/20 09:00:35;;;;;;;2.30;1.80;;;13.00;94.20;;;;;;5091675;28;20039;-70
2022/04/20 09:03:03;;;;;;;2.75;1.90;;;13.20;91.60;;;;;;5122982;27;20402;-69
2022/04/20 09:05:30;;;;;;;3.03;1.83;;;13.00;89.40;;;;;;5120645;27;20046;-70
2022/04/20 09:07:57;;;;;;;3.42;2.10;;;13.20;94.70;;;;;;5121223;28;20047;-70
2022/04/20 09:10:23;;;;;;;2.83;2.05;;;13.50;97.40;;;;;;5123915;27;20167;-69
2022/04/20 09:13:07;;;;;;;2.92;1.90;;;13.60;95.10;;;;;;5108229;27;20056;-69
2022/04/20 09:15:35;;;;;;;3.28;1.90;;;13.70;88.60;;;;;;5123927;27;20322;-69
2022/04/20 09:18:15;;;;;;;2.53;2.03;;;13.80;91.60;;;;;;5122448;28;20314;-68
2022/04/20 09:20:41;;;;;;;2.20;2.00;;;13.80;83.00;;;;;;5087038;28;20104;-69
2022/04/20 09:23:10;;;;;;;4.15;2.30;;;14.00;90.20;;;;;;5125310;27;20039;-70
2022/04/20 09:25:37;;;;;;;5.15;1.73;;;14.10;86.30;;;;;;5130822;27;20302;-69
2022/04/20 09:28:08;;;;;;;3.50;1.88;;;14.30;81.40;;;;;;5114825;27;20035;-70
2022/04/20 09:30:38;;;;;;;3.28;1.60;;;14.20;85.80;;;;;;5135187;27;20372;-69
2022/04/20 09:33:07;;;;;;;3.92;2.10;;;14.30;73.30;;;;;;5108769;27;20250;-69
2022/04/20 09:35:49;;;;;;;3.10;1.92;;;14.60;77.80;;;;;;5127980;27;20340;-71
2022/04/20 09:38:41;;;;;;;2.05;1.70;;;14.70;76.30;;;;;;5122674;27;20138;-69
2022/04/20 09:41:21;;;;;;;2.65;1.90;;;14.80;64.10;;;;;;5093989;28;20052;-70
2022/04/20 09:44:07;;;;;;;2.08;1.50;;;15.20;68.10;;;;;;5115916;27;20187;-70
2022/04/20 09:49:56;;;;;;;2.97;1.75;;;15.50;68.00;;;;;;5114726;28;20052;-70
2022/04/20 09:52:34;;;;;;;1.95;1.60;;;16.00;70.70;;;;;;5124757;27;20047;-70
2022/04/20 09:55:00;;;;;;;2.85;1.58;;;15.60;72.50;;;;;;5134988;27;20047;-70
2022/04/20 09:57:26;;;;;;;1.95;1.55;;;16.20;64.60;;;;;;5102707;28;20043;-70
2022/04/20 09:59:59;;;;;;;3.00;1.55;;;15.70;65.60;;;;;;5130517;27;20032;-71
2022/04/20 10:02:27;;;;;;;2.13;1.50;;;15.90;64.50;;;;;;5100875;28;20139;-70
2022/04/20 10:04:53;;;;;;;2.20;1.40;;;16.00;62.30;;;;;;5098051;28;20100;-70
2022/04/20 10:07:18;;;;;;;5.78;1.80;;;16.10;65.00;;;;;;5114272;28;20070;-70
2022/04/20 10:09:45;;;;;;;2.72;1.65;;;16.40;68.50;;;;;;5080144;28;20039;-70
2022/04/20 10:12:18;;;;;;;2.13;1.70;;;16.10;59.10;;;;;;5089449;28;20070;-70
2022/04/20 10:17:56;;;;;;;2.17;1.40;;;16.20;58.30;;;;;;5117528;27;20035;-71
2022/04/20 10:20:26;;;;;;;1.60;1.48;;;16.00;55.70;;;;;;5099525;28;20097;-71
2022/04/20 10:22:54;;;;;;;2.08;1.50;;;16.50;55.20;;;;;;5097253;28;20330;-71
2022/04/20 10:25:21;;;;;;;2.35;1.40;;;16.60;55.10;;;;;;5107155;28;20393;-70
2022/04/20 10:28:04;;;;;;;2.83;1.42;;;16.50;58.80;;;;;;5091487;27;20039;-70
2022/04/20 10:30:52;;;;;;;2.40;1.30;;;16.00;55.50;;;;;;5134556;27;20211;-71
2022/04/20 10:33:19;;;;;;;1.80;1.40;;;16.30;48.70;;;;;;5116713;27;20035;-70
2022/04/20 10:35:58;;;;;;;2.72;1.73;;;16.20;53.60;;;;;;5115318;27;20040;-71
2022/04/20 10:38:25;;;;;;;1.33;1.15;;;16.30;54.70;;;;;;5105316;28;20199;-71
2022/04/20 10:41:11;;;;;;;1.77;1.48;;;16.50;46.60;;;;;;5096793;28;20135;-71
2022/04/20 10:43:39;;;;;;;1.38;1.10;;;16.90;50.60;;;;;;5113958;28;20047;-71
2022/04/20 10:46:15;;;;;;;4.40;2.25;;;17.00;51.20;;;;;;5113367;28;20126;-71
2022/04/20 10:48:48;;;;;;;1.80;1.20;;;16.90;51.70;;;;;;5125020;27;20050;-71
2022/04/20 10:51:16;;;;;;;2.00;1.20;;;16.30;51.40;;;;;;5134035;27;20035;-71
2022/04/20 10:53:47;;;;;;;1.63;1.33;;;16.40;54.80;;;;;;5134031;27;20286;-71
2022/04/20 10:56:14;;;;;;;1.50;1.10;;;16.80;54.40;;;;;;5067848;28;20043;-71
2022/04/20 10:59:07;;;;;;;1.30;1.20;;;16.90;51.40;;;;;;5087533;28;20039;-70
2022/04/20 11:01:59;;;;;;;1.58;1.10;;;17.10;47.50;;;;;;5116751;28;20290;-71
2022/04/20 11:04:46;;;;;;;1.67;1.15;;;16.90;46.50;;;;;;5124198;28;20264;-71
2022/04/20 11:07:15;;;;;;;1.52;1.10;;;17.10;48.90;;;;;;5109962;28;20042;-71
2022/04/20 11:09:50;;;;;;;1.52;1.20;;;17.10;48.90;;;;;;5132927;28;20110;-71
2022/04/20 11:21:06;;;;;;;2.28;1.10;;;17.10;52.80;;;;;;5123909;28;20050;-70
2022/04/20 11:23:54;;;;;;;1.27;1.08;;;17.30;53.20;;;;;;5134069;28;20035;-71
2022/04/20 11:26:26;;;;;;;1.13;1.02;;;16.80;50.80;;;;;;5113432;28;20110;-71
2022/04/20 11:28:52;;;;;;;3.72;1.40;;;17.10;49.70;;;;;;5115791;28;20294;-71
2022/04/20 11:31:18;;;;;;;2.20;1.75;;;17.30;50.40;;;;;;5133694;28;20250;-71
2022/04/20 11:33:44;;;;;;;1.67;1.25;;;17.10;51.80;;;;;;5116275;28;20282;-71
2022/04/20 11:36:14;;;;;;;2.47;1.20;;;17.20;49.40;;;;;;5116794;28;20307;-71
2022/04/20 11:38:42;;;;;;;1.65;1.27;;;17.70;53.60;;;;;;5103598;28;20058;-71
2022/04/20 11:41:10;;;;;;;2.20;1.00;;;17.30;50.80;;;;;;5129777;28;20034;-71
2022/04/20 11:43:37;;;;;;;2.30;1.30;;;17.50;47.90;;;;;;5116804;28;20110;-71
2022/04/20 11:46:04;;;;;;;1.70;1.15;;;17.30;50.50;;;;;;5132849;28;20050;-71
2022/04/20 11:48:32;;;;;;;2.25;1.00;;;17.80;51.80;;;;;;5123578;28;20298;-71
2022/04/20 11:51:03;;;;;;;1.90;1.25;;;17.60;46.20;;;;;;5105050;28;20039;-71
2022/04/20 11:53:38;;;;;;;1.20;1.10;;;17.60;51.40;;;;;;5080066;28;20379;-72
2022/04/20 11:56:12;;;;;;;2.13;1.58;;;17.90;50.60;;;;;;5115153;28;20203;-72
2022/04/20 11:58:38;;;;;;;1.20;1.10;;;17.20;51.60;;;;;;5116154;27;20067;-71
2022/04/20 12:04:13;;;;;;;2.03;1.70;;;17.10;50.40;;;;;;5121461;27;20043;-72
2022/04/20 12:06:49;;;;;;;1.38;1.20;;;17.40;50.10;;;;;;5122126;27;20027;-72
2022/04/20 12:09:18;;;;;;;2.75;1.50;;;17.90;49.20;;;;;;5113334;28;20036;-72
2022/04/20 12:12:05;;;;;;;1.50;1.30;;;17.80;49.10;;;;;;5112464;27;20046;-72
2022/04/20 12:14:32;;;;;;;2.30;1.25;;;17.30;50.80;;;;;;5101048;28;20043;-72
2022/04/20 12:17:02;;;;;;;1.73;1.30;;;17.00;51.10;;;;;;5117735;27;20039;-72
2022/04/20 12:19:28;;;;;;;1.40;1.20;;;17.00;51.20;;;;;;5118113;27;20035;-70
2022/04/20 12:22:24;;;;;;;2.05;1.25;;;17.20;50.10;;;;;;5120817;27;20043;-73
2022/04/20 12:25:10;;;;;;;1.67;1.27;;;17.00;51.40;;;;;;5116237;27;20361;-70
2022/04/20 12:27:52;;;;;;;1.70;1.10;;;16.80;53.00;;;;;;5119475;27;20035;-69
2022/04/20 12:30:38;;;;;;;1.35;1.20;;;16.80;51.20;;;;;;5101673;28;20264;-70
2022/04/20 12:33:05;;;;;;;1.30;1.20;;;16.80;50.70;;;;;;5122329;27;20039;-70
2022/04/20 12:35:32;;;;;;;1.90;1.40;;;16.80;52.30;;;;;;5126141;27;20042;-69
2022/04/20 12:37:57;;;;;;;1.80;1.17;;;16.80;51.90;;;;;;5133263;27;20222;-69
2022/04/20 12:40:24;;;;;;;1.80;1.08;;;16.70;51.30;;;;;;5137663;27;20035;-69
2022/04/20 12:43:07;;;;;;;1.63;1.20;;;17.20;52.10;;;;;;5122262;27;20049;-70
2022/04/20 12:45:33;;;;;;;1.50;1.40;;;17.30;53.90;;;;;;5105557;28;20040;-70
2022/04/20 12:48:11;;;;;;;3.55;1.20;;;17.50;52.40;;;;;;5091471;28;20097;-69
2022/04/20 12:50:43;;;;;;;1.33;1.15;;;17.70;55.10;;;;;;5123844;27;20118;-69
2022/04/20 12:53:09;;;;;;;2.65;1.40;;;17.60;53.30;;;;;;5125835;27;20048;-70
2022/04/20 13:04:08;;;;;;;1.13;1.02;;;18.10;49.50;;;;;;5123126;27;20154;-71
2022/04/20 13:06:34;;;;;;;1.98;1.52;;;18.40;51.20;;;;;;5112343;27;20302;-71
2022/04/20 13:09:00;;;;;;;2.22;1.55;;;18.40;52.20;;;;;;5120325;27;20031;-72
2022/04/20 13:11:26;;;;;;;2.25;1.67;;;18.30;53.20;;;;;;5137641;27;20039;-71
2022/04/20 13:13:59;;;;;;;3.67;1.65;;;18.40;53.30;;;;;;5137618;27;20136;-72
2022/04/20 13:16:25;;;;;;;2.60;1.80;;;18.40;51.70;;;;;;5120206;27;20054;-71
2022/04/20 13:18:53;;;;;;;2.25;1.80;;;18.70;53.60;;;;;;5110837;28;20043;-72
2022/04/20 13:21:19;;;;;;;2.33;1.80;;;18.40;52.90;;;;;;5100753;28;20199;-70
2022/04/20 13:23:47;;;;;;;2.08;1.88;;;18.60;54.00;;;;;;5104393;28;20035;-70
2022/04/20 13:29:00;;;;;;;2.35;1.83;;;18.50;55.90;;;;;;5103441;28;20042;-71
2022/04/20 13:31:26;;;;;;;2.40;2.05;;;18.90;56.40;;;;;;5100559;28;20040;-71
2022/04/20 13:33:52;;;;;;;2.35;2.00;;;18.00;53.50;;;;;;5099908;27;20047;-71
2022/04/20 13:36:17;;;;;;;3.13;2.40;;;18.00;55.30;;;;;;5124722;27;20046;-70
2022/04/20 13:38:43;;;;;;;2.45;2.25;;;17.50;57.00;;;;;;5119889;27;20036;-72
2022/04/20 13:41:09;;;;;;;3.50;1.80;;;17.70;56.90;;;;;;5099647;28;20035;-72
2022/04/20 13:43:34;;;;;;;2.45;2.10;;;17.70;56.80;;;;;;5083639;27;20042;-70
2022/04/20 13:46:00;;;;;;;3.22;2.50;;;17.70;56.90;;;;;;5116694;28;20035;-70
2022/04/20 13:48:26;;;;;;;4.32;2.88;;;17.70;61.30;;;;;;5102386;28;20024;-70